Time;durP1;ratioP1;P1;durP2;ratioP2;P2;SDS_P1;SDS_P2;PMS_P1;PMS_P2;Temp;Humidity;BMP_temperature;BMP_pressure;BME280_temperature;BME280_humidity;BME280_pressure;Samples;Min_cycle;Max_cycle;Signal;HPM_P1;HPM_P2
2022/11/28 00:01:40;;;;;;;6.83;5.37;;;;;;;4.12;100.00;95018.16;5071688;28;20189;-58
2022/11/28 00:04:06;;;;;;;7.73;5.50;;;;;;;4.18;100.00;95027.88;5072251;28;20227;-59
2022/11/28 00:06:36;;;;;;;7.63;4.87;;;;;;;4.16;100.00;95032.19;5072346;28;20181;-60
2022/11/28 00:09:02;;;;;;;6.67;4.67;;;;;;;4.09;100.00;95032.59;5072299;28;20733;-62
2022/11/28 00:11:28;;;;;;;8.03;5.20;;;;;;;4.14;100.00;95026.44;5072190;28;20191;-62
2022/11/28 00:13:54;;;;;;;6.87;4.73;;;;;;;4.16;100.00;95028.88;5072230;28;20189;-61
2022/11/28 00:16:21;;;;;;;7.90;5.07;;;;;;;3.99;100.00;95016.38;5054053;28;20271;-62
2022/11/28 00:18:47;;;;;;;8.00;5.33;;;;;;;4.04;100.00;95027.03;5072054;28;20185;-62
2022/11/28 00:21:14;;;;;;;7.00;5.37;;;;;;;4.07;100.00;95021.81;5072006;28;20187;-62
2022/11/28 00:23:42;;;;;;;6.43;4.33;;;;;;;3.97;100.00;95021.50;5071938;28;20200;-62
2022/11/28 00:26:18;;;;;;;5.90;4.63;;;;;;;3.91;100.00;95010.97;5071894;28;20186;-61
2022/11/28 00:28:44;;;;;;;6.33;4.33;;;;;;;3.97;100.00;95029.06;5071830;28;20205;-58
2022/11/28 00:31:14;;;;;;;7.23;4.67;;;;;;;3.90;100.00;95024.44;5071832;28;20186;-59
2022/11/28 00:33:40;;;;;;;8.00;4.63;;;;;;;3.91;100.00;95021.84;5071849;28;20184;-61
2022/11/28 00:36:06;;;;;;;7.17;4.87;;;;;;;3.96;100.00;95027.41;5053412;28;20750;-61
2022/11/28 00:38:31;;;;;;;7.67;5.17;;;;;;;3.93;100.00;95020.03;5071857;28;20186;-61
2022/11/28 00:41:10;;;;;;;8.40;5.10;;;;;;;3.91;100.00;95021.84;5071447;28;20209;-62
2022/11/28 00:43:36;;;;;;;6.90;4.70;;;;;;;3.85;100.00;95021.34;5071837;28;20266;-61
2022/11/28 00:46:02;;;;;;;8.73;5.17;;;;;;;3.83;100.00;95018.91;5071303;28;20216;-61
2022/11/28 00:48:29;;;;;;;10.23;5.20;;;;;;;3.88;100.00;95027.00;5071437;28;20200;-62
2022/11/28 00:51:03;;;;;;;5.87;4.27;;;;;;;3.88;100.00;95026.22;5071580;28;20211;-62
2022/11/28 00:53:29;;;;;;;7.13;5.13;;;;;;;3.88;100.00;95016.16;5071527;28;20230;-62
2022/11/28 00:55:54;;;;;;;6.37;4.80;;;;;;;3.85;100.00;95019.63;5053157;28;20248;-61
2022/11/28 00:58:20;;;;;;;8.83;4.63;;;;;;;3.78;100.00;95012.47;5071230;28;20257;-62
2022/11/28 01:00:45;;;;;;;7.20;4.20;;;;;;;3.82;100.00;95014.75;5071113;28;20244;-61
2022/11/28 01:03:11;;;;;;;6.40;4.30;;;;;;;3.95;100.00;95017.44;5071043;28;20189;-62
2022/11/28 01:05:42;;;;;;;7.10;4.40;;;;;;;4.01;100.00;95037.22;5053106;28;20216;-59
2022/11/28 01:08:09;;;;;;;6.03;4.03;;;;;;;3.87;100.00;95022.88;5071009;28;20189;-60
2022/11/28 01:10:39;;;;;;;7.40;3.97;;;;;;;3.89;100.00;95021.09;5071363;28;20334;-59
2022/11/28 01:13:05;;;;;;;5.10;3.87;;;;;;;3.91;100.00;95026.88;5069762;28;20240;-59
2022/11/28 01:15:30;;;;;;;4.77;3.60;;;;;;;3.86;100.00;95016.22;5071159;28;20238;-63
2022/11/28 01:17:56;;;;;;;4.30;3.43;;;;;;;3.80;100.00;95014.03;5053121;28;20191;-63
2022/11/28 01:20:21;;;;;;;4.90;3.53;;;;;;;3.72;100.00;95006.09;5070544;28;20213;-64
2022/11/28 01:22:47;;;;;;;4.73;3.37;;;;;;;3.72;100.00;95010.28;5053083;28;20184;-63
2022/11/28 01:25:12;;;;;;;6.27;4.37;;;;;;;3.66;100.00;95003.88;5070897;28;20240;-63
2022/11/28 01:27:37;;;;;;;5.53;3.70;;;;;;;3.71;100.00;95003.66;5070923;28;20214;-57
2022/11/28 01:30:04;;;;;;;7.40;3.60;;;;;;;3.69;100.00;95000.41;5070973;28;20642;-61
2022/11/28 01:32:29;;;;;;;5.97;3.77;;;;;;;3.69;100.00;95001.22;5070628;28;20206;-58
2022/11/28 01:34:55;;;;;;;4.30;3.40;;;;;;;3.65;100.00;94996.44;5070761;28;20210;-59
2022/11/28 01:37:21;;;;;;;6.07;3.80;;;;;;;3.47;100.00;94989.84;5052940;28;20242;-59
2022/11/28 01:39:46;;;;;;;5.93;4.10;;;;;;;3.65;100.00;94997.25;5052721;28;20214;-58
2022/11/28 01:42:18;;;;;;;5.53;3.60;;;;;;;3.71;100.00;94994.41;5070802;28;20223;-58
2022/11/28 01:44:47;;;;;;;5.47;3.40;;;;;;;3.67;100.00;94995.47;5070819;28;20221;-58
2022/11/28 01:47:19;;;;;;;6.90;3.43;;;;;;;3.72;100.00;94985.97;5070687;28;20188;-62
2022/11/28 01:49:48;;;;;;;5.27;3.63;;;;;;;3.65;100.00;94991.41;5070793;28;20244;-59
2022/11/28 01:52:20;;;;;;;3.07;2.50;;;;;;;3.60;100.00;94984.09;5052411;28;20655;-63
2022/11/28 01:54:50;;;;;;;5.13;3.30;;;;;;;3.65;100.00;94984.69;5070524;28;20208;-62
2022/11/28 01:57:24;;;;;;;4.13;3.30;;;;;;;3.65;100.00;94992.22;5052694;28;20177;-65
2022/11/28 01:59:56;;;;;;;5.07;3.50;;;;;;;3.67;100.00;94984.59;5052600;28;20216;-62
2022/11/28 02:02:36;;;;;;;4.67;3.10;;;;;;;3.72;100.00;94995.19;5070639;28;20172;-61
2022/11/28 02:05:02;;;;;;;5.43;3.10;;;;;;;3.60;100.00;94985.78;5070649;28;20225;-63
2022/11/28 02:07:28;;;;;;;3.70;3.30;;;;;;;3.57;100.00;94978.44;5070813;28;20268;-63
2022/11/28 02:09:54;;;;;;;4.67;3.43;;;;;;;3.56;100.00;94966.75;5070601;28;20280;-62
2022/11/28 02:12:34;;;;;;;4.63;3.17;;;;;;;3.68;100.00;94984.50;5052327;28;20551;-61
2022/11/28 02:15:17;;;;;;;4.90;3.13;;;;;;;3.67;100.00;94977.88;5070441;28;20258;-63
2022/11/28 02:18:09;;;;;;;4.27;3.23;;;;;;;3.64;100.00;94982.22;5070387;28;20186;-59
2022/11/28 02:21:06;;;;;;;4.13;3.23;;;;;;;3.63;100.00;94973.09;5070109;28;20258;-62
2022/11/28 02:23:31;;;;;;;4.80;3.27;;;;;;;3.62;100.00;94968.94;5052248;28;20198;-59
2022/11/28 02:26:27;;;;;;;4.13;2.73;;;;;;;3.63;100.00;94973.09;5055234;28;20215;-61
2022/11/28 02:29:17;;;;;;;4.73;3.50;;;;;;;3.47;100.00;94970.56;5074091;28;20276;-63
2022/11/28 02:31:57;;;;;;;3.87;2.80;;;;;;;3.52;100.00;94972.81;5073469;28;20177;-61
2022/11/28 02:34:31;;;;;;;3.43;2.70;;;;;;;3.53;100.00;94965.22;5055532;28;20217;-61
2022/11/28 02:37:21;;;;;;;3.70;2.93;;;;;;;3.54;100.00;94969.34;5055579;28;20184;-61
2022/11/28 02:40:22;;;;;;;3.50;2.50;;;;;;;3.54;100.00;94968.53;5073228;28;20274;-60
2022/11/28 02:43:02;;;;;;;3.23;2.70;;;;;;;3.47;100.00;94962.22;5019294;28;20250;-60
2022/11/28 02:46:07;;;;;;;2.53;2.13;;;;;;;3.51;100.00;94966.19;5073407;28;20238;-58
2022/11/28 02:48:52;;;;;;;4.13;2.70;;;;;;;3.45;100.00;94969.84;5002466;28;20684;-64
2022/11/28 02:51:27;;;;;;;4.07;2.77;;;;;;;3.53;100.00;94965.22;5073549;28;20650;-62
2022/11/28 02:53:55;;;;;;;3.50;2.90;;;;;;;3.59;100.00;94974.13;5073382;28;20258;-62
2022/11/28 02:56:23;;;;;;;4.30;3.03;;;;;;;3.57;100.00;94980.94;5073230;28;20691;-62
2022/11/28 02:58:49;;;;;;;2.63;2.30;;;;;;;3.68;100.00;94983.69;5073157;28;20200;-63
2022/11/28 03:01:22;;;;;;;2.80;2.50;;;;;;;3.63;100.00;94985.66;5073254;28;20617;-61
2022/11/28 03:04:11;;;;;;;4.20;2.70;;;;;;;3.57;100.00;94971.72;5073172;28;20212;-61
2022/11/28 03:07:15;;;;;;;3.00;2.53;;;;;;;3.72;100.00;94985.16;5055114;28;20177;-61
2022/11/28 03:09:56;;;;;;;2.67;2.47;;;;;;;3.79;100.00;94989.78;5031914;28;20279;-58
2022/11/28 03:13:29;;;;;;;3.03;2.73;;;;;;;3.70;100.00;94985.25;5073186;28;20193;-60
2022/11/28 03:15:57;;;;;;;3.27;2.47;;;;;;;3.65;100.00;94976.31;4948611;28;20235;-57
2022/11/28 03:18:29;;;;;;;2.50;2.00;;;;;;;3.73;100.00;94984.28;4972127;28;20231;-61
2022/11/28 03:21:04;;;;;;;4.13;2.43;;;;;;;3.79;100.00;94997.34;5007840;28;20257;-57
2022/11/28 03:23:44;;;;;;;2.23;2.00;;;;;;;3.68;100.00;94981.19;5072859;28;20185;-62
2022/11/28 03:26:29;;;;;;;2.30;2.00;;;;;;;3.74;100.00;94993.41;5073088;28;20251;-62
2022/11/28 03:29:01;;;;;;;3.40;2.10;;;;;;;3.72;100.00;94991.00;5072856;28;20222;-63
2022/11/28 03:31:37;;;;;;;2.97;2.67;;;;;;;3.73;100.00;94994.34;5072801;28;20191;-62
2022/11/28 03:34:08;;;;;;;2.53;2.30;;;;;;;3.71;100.00;94973.50;5072677;28;20233;-57
2022/11/28 03:36:42;;;;;;;1.93;1.80;;;;;;;3.84;100.00;94999.59;5071686;28;20188;-58
2022/11/28 03:39:12;;;;;;;3.17;2.33;;;;;;;3.77;100.00;94998.31;5054750;28;20206;-61
2022/11/28 03:41:44;;;;;;;1.80;1.70;;;;;;;3.57;100.00;94970.91;5072884;28;20194;-58
2022/11/28 03:44:16;;;;;;;1.97;1.87;;;;;;;3.72;100.00;94995.19;5072835;28;20229;-65
2022/11/28 03:46:47;;;;;;;2.23;1.60;;;;;;;3.70;100.00;94989.44;5072676;28;20181;-62
2022/11/28 03:49:19;;;;;;;2.10;1.70;;;;;;;3.64;100.00;94974.69;5072361;28;20208;-60
2022/11/28 03:52:00;;;;;;;2.00;1.57;;;;;;;3.73;100.00;94990.13;5072307;28;20220;-62
2022/11/28 03:54:41;;;;;;;2.00;1.70;;;;;;;3.75;100.00;94985.00;5072445;28;20262;-61
2022/11/28 03:57:36;;;;;;;1.83;1.50;;;;;;;3.57;100.00;94960.84;5072260;28;20236;-61
2022/11/28 04:00:06;;;;;;;2.37;1.70;;;;;;;3.64;100.00;94969.66;5000594;28;20787;-62
2022/11/28 04:02:54;;;;;;;2.07;1.53;;;;;;;3.64;100.00;94973.00;5072438;28;20197;-58
2022/11/28 04:05:37;;;;;;;2.40;1.57;;;;;;;3.63;100.00;94968.06;5072240;28;20216;-62
2022/11/28 04:08:23;;;;;;;1.50;1.37;;;;;;;3.59;100.00;94966.59;5054041;28;20193;-59
2022/11/28 04:11:05;;;;;;;1.40;1.30;;;;;;;3.64;100.00;94977.19;5072162;28;20289;-60
2022/11/28 04:13:53;;;;;;;1.40;1.17;;;;;;;3.66;100.00;94970.41;5053969;28;20189;-62
2022/11/28 04:16:33;;;;;;;1.50;1.40;;;;;;;3.56;100.00;94960.03;5072102;28;20177;-64
2022/11/28 04:19:01;;;;;;;3.90;1.60;;;;;;;3.52;100.00;94957.75;5071989;28;20251;-64
2022/11/28 04:21:37;;;;;;;2.10;1.40;;;;;;;3.63;100.00;94976.41;5071908;28;20569;-61
2022/11/28 04:24:07;;;;;;;1.70;1.47;;;;;;;3.54;100.00;94966.00;5071907;28;20224;-59
2022/11/28 04:26:37;;;;;;;1.63;1.10;;;;;;;3.67;100.00;94979.56;5071875;28;20658;-61
2022/11/28 04:29:08;;;;;;;1.10;1.00;;;;;;;3.72;100.00;94978.44;5061754;22;20588;-61
2022/11/28 04:31:35;;;;;;;1.40;1.30;;;;;;;3.66;100.00;94985.47;5071097;28;20208;-62
2022/11/28 04:34:07;;;;;;;1.47;1.37;;;;;;;3.48;100.00;94966.34;5071756;28;20210;-60
2022/11/28 04:36:37;;;;;;;1.57;1.23;;;;;;;3.56;100.00;94979.31;5071643;28;20268;-64
2022/11/28 04:39:07;;;;;;;1.30;1.10;;;;;;;3.67;100.00;94980.41;5053680;28;20216;-62
2022/11/28 04:41:50;;;;;;;1.50;1.00;;;;;;;3.74;100.00;95009.31;5071591;28;20187;-61
2022/11/28 04:44:36;;;;;;;1.23;1.10;;;;;;;3.66;100.00;94988.81;5071470;28;20219;-61
2022/11/28 04:47:02;;;;;;;1.47;1.27;;;;;;;3.53;100.00;94971.94;5071492;28;20182;-63
2022/11/28 04:49:29;;;;;;;2.63;1.43;;;;;;;3.58;100.00;94977.53;5071478;28;20215;-62
2022/11/28 04:52:20;;;;;;;1.73;1.20;;;;;;;3.50;100.00;94985.47;5071285;28;20193;-59
2022/11/28 04:54:52;;;;;;;1.87;1.57;;;;;;;3.61;100.00;94985.75;5040297;28;20230;-61
2022/11/28 04:57:27;;;;;;;1.93;1.53;;;;;;;3.65;100.00;94994.75;5071384;28;20177;-61
2022/11/28 04:59:55;;;;;;;2.33;1.43;;;;;;;3.68;100.00;94993.75;5071387;28;20201;-57
2022/11/28 05:02:22;;;;;;;1.60;1.50;;;;;;;3.71;100.00;95001.13;5071247;28;20174;-62
2022/11/28 05:04:48;;;;;;;1.77;1.63;;;;;;;3.73;100.00;95007.72;5071293;28;20838;-63
2022/11/28 05:07:13;;;;;;;3.03;1.80;;;;;;;4.11;100.00;94993.91;5071214;28;20272;-60
2022/11/28 05:09:39;;;;;;;1.83;1.50;;;;;;;4.81;100.00;95003.38;5071274;28;20215;-61
2022/11/28 05:12:05;;;;;;;1.73;1.60;;;;;;;4.57;100.00;95011.50;5071028;28;20181;-61
2022/11/28 05:14:31;;;;;;;3.90;1.90;;;;;;;4.32;100.00;95022.13;5070818;28;20209;-60
2022/11/28 05:16:56;;;;;;;2.50;1.60;;;;;;;4.27;100.00;95039.16;5052987;28;20197;-62
2022/11/28 05:19:22;;;;;;;3.17;1.63;;;;;;;4.20;100.00;95042.91;5052859;28;20216;-61
2022/11/28 05:21:48;;;;;;;2.10;1.83;;;;;;;4.18;100.00;95030.41;5071049;28;20200;-62
2022/11/28 05:24:13;;;;;;;3.37;1.67;;;;;;;4.18;100.00;95027.09;5070971;28;20204;-59
2022/11/28 05:26:38;;;;;;;2.00;1.70;;;;;;;4.13;100.00;95016.47;5071340;28;20206;-61
2022/11/28 05:29:05;;;;;;;2.00;1.60;;;;;;;4.11;100.00;95015.72;5070821;28;20722;-62
2022/11/28 05:31:30;;;;;;;1.57;1.47;;;;;;;4.12;100.00;95007.31;5070856;28;20240;-63
2022/11/28 05:33:56;;;;;;;1.60;1.50;;;;;;;4.00;100.00;95013.00;5070744;28;20182;-59
2022/11/28 05:36:22;;;;;;;3.40;2.20;;;;;;;3.93;100.00;94997.41;5069446;28;20664;-61
2022/11/28 05:38:48;;;;;;;2.33;1.87;;;;;;;4.04;100.00;95000.16;5070791;28;20185;-61
2022/11/28 05:41:25;;;;;;;1.70;1.60;;;;;;;4.10;100.00;95001.53;5070689;28;20255;-58
2022/11/28 05:43:51;;;;;;;3.40;2.17;;;;;;;4.00;100.00;94996.19;5070610;28;20309;-62
2022/11/28 05:46:17;;;;;;;3.40;2.03;;;;;;;4.01;100.00;94991.97;5070893;28;20281;-62
2022/11/28 05:48:43;;;;;;;2.20;2.00;;;;;;;4.66;100.00;94995.88;5070256;28;20195;-59
2022/11/28 05:51:08;;;;;;;2.70;2.00;;;;;;;4.48;100.00;95022.09;5070731;28;20651;-62
2022/11/28 05:53:34;;;;;;;2.87;2.17;;;;;;;4.46;100.00;95034.75;5070392;28;20196;-62
2022/11/28 05:56:05;;;;;;;2.20;2.00;;;;;;;4.45;100.00;95010.47;5070570;28;20210;-59
2022/11/28 05:58:30;;;;;;;4.20;2.90;;;;;;;4.55;100.00;95008.25;5070274;28;20190;-62
2022/11/28 06:00:56;;;;;;;2.87;2.60;;;;;;;4.47;100.00;95006.16;5069619;28;20689;-61
2022/11/28 06:03:21;;;;;;;3.37;2.20;;;;;;;4.38;100.00;94991.59;5070107;28;20216;-60
2022/11/28 06:05:47;;;;;;;3.17;2.70;;;;;;;7.68;100.00;94977.66;5070556;28;20572;-61
2022/11/28 06:08:13;;;;;;;3.20;2.70;;;;;;;7.24;100.00;94982.38;5070266;28;20215;-62
2022/11/28 06:10:39;;;;;;;4.00;3.03;;;;;;;6.48;100.00;94978.97;5070270;28;20212;-61
2022/11/28 06:13:05;;;;;;;4.10;3.23;;;;;;;6.04;100.00;94981.72;5070049;28;20203;-59
2022/11/28 06:15:31;;;;;;;3.33;2.50;;;;;;;5.76;100.00;95024.66;5070210;28;20204;-63
2022/11/28 06:17:56;;;;;;;2.80;2.50;;;;;;;5.48;100.00;95048.19;5070224;28;20269;-63
2022/11/28 06:20:22;;;;;;;5.20;3.07;;;;;;;5.17;100.00;95052.56;5070074;28;20704;-62
2022/11/28 06:22:47;;;;;;;3.77;2.93;;;;;;;5.09;100.00;95031.13;5052175;28;20184;-62
2022/11/28 06:25:12;;;;;;;6.63;3.20;;;;;;;4.89;100.00;95002.94;5070230;28;20595;-59
2022/11/28 06:27:38;;;;;;;3.83;3.30;;;;;;;4.92;100.00;95031.31;5070207;28;20177;-63
2022/11/28 06:30:05;;;;;;;5.67;3.10;;;;;;;4.91;100.00;95012.03;5069788;28;20761;-62
2022/11/28 06:32:31;;;;;;;4.30;3.23;;;;;;;5.00;100.00;95026.63;5069798;28;20613;-62
2022/11/28 06:34:56;;;;;;;4.50;3.20;;;;;;;6.04;100.00;94976.69;5052207;28;20217;-59
2022/11/28 06:37:22;;;;;;;7.07;4.13;;;;;;;8.35;100.00;94979.69;5069972;28;20602;-60
2022/11/28 06:39:50;;;;;;;4.80;3.10;;;;;;;9.65;100.00;94970.03;5069924;28;20266;-59
2022/11/28 06:42:16;;;;;;;5.13;3.73;;;;;;;8.31;100.00;95148.00;5069681;28;20188;-59
2022/11/28 06:44:41;;;;;;;6.47;3.97;;;;;;;7.47;100.00;95131.66;5069591;28;20586;-61
2022/11/28 06:47:07;;;;;;;5.20;3.80;;;;;;;7.01;100.00;95082.44;5069723;28;20745;-61
2022/11/28 06:49:33;;;;;;;8.00;4.20;;;;;;;6.69;100.00;95093.78;5069671;28;20208;-60
2022/11/28 06:51:58;;;;;;;5.83;3.70;;;;;;;6.48;100.00;95083.31;5069517;28;20173;-63
2022/11/28 06:54:23;;;;;;;7.93;4.03;;;;;;;6.08;100.00;95013.44;5069379;28;20270;-62
2022/11/28 06:56:49;;;;;;;4.67;3.83;;;;;;;5.88;100.00;95002.06;5069270;28;20195;-62
2022/11/28 06:59:14;;;;;;;5.57;3.57;;;;;;;5.66;100.00;95016.84;5069306;28;20569;-62
2022/11/28 07:01:40;;;;;;;6.13;4.03;;;;;;;5.56;100.00;94988.03;5051270;28;20185;-60
2022/11/28 07:04:05;;;;;;;4.97;3.97;;;;;;;5.39;100.00;94987.41;5069250;28;20211;-61
2022/11/28 07:06:31;;;;;;;6.67;4.50;;;;;;;5.48;100.00;95007.03;5069326;28;20211;-61
2022/11/28 07:08:57;;;;;;;6.37;4.23;;;;;;;5.10;100.00;94967.25;5051322;28;20184;-62
2022/11/28 07:11:26;;;;;;;6.60;4.17;;;;;;;5.18;100.00;94981.09;5069792;28;20311;-61
2022/11/28 07:13:52;;;;;;;5.40;4.27;;;;;;;5.06;100.00;94983.47;5072653;28;20183;-62
2022/11/28 07:16:21;;;;;;;7.67;4.50;;;;;;;5.13;100.00;94997.31;5073408;28;20208;-58
2022/11/28 07:18:46;;;;;;;6.07;4.33;;;;;;;5.13;100.00;94987.22;5072971;28;20183;-60
2022/11/28 07:21:13;;;;;;;7.23;4.50;;;;;;;5.02;100.00;94981.19;5054865;28;20250;-61
2022/11/28 07:23:39;;;;;;;4.77;3.60;;;;;;;5.11;100.00;94993.25;5055024;28;20184;-63
2022/11/28 07:26:06;;;;;;;3.73;3.33;;;;;;;5.17;100.00;94997.97;5073258;28;20215;-60
2022/11/28 07:28:33;;;;;;;5.13;3.40;;;;;;;5.23;100.00;95002.66;5073105;28;20180;-61
2022/11/28 07:31:16;;;;;;;3.33;3.03;;;;;;;5.32;100.00;95016.38;5072883;28;20302;-60
2022/11/28 07:33:43;;;;;;;4.23;2.93;;;;;;;5.13;100.00;94982.19;5073068;28;20180;-63
2022/11/28 07:36:12;;;;;;;3.30;2.97;;;;;;;5.03;100.00;94978.59;5072686;28;20187;-59
2022/11/28 07:38:38;;;;;;;5.43;3.10;;;;;;;4.84;100.00;94967.97;5073158;28;20640;-63
2022/11/28 07:41:11;;;;;;;4.07;3.23;;;;;;;4.97;100.00;94981.47;5054986;28;20307;-62
2022/11/28 07:43:37;;;;;;;5.00;3.20;;;;;;;4.93;100.00;94969.13;5072739;28;20217;-62
2022/11/28 07:46:06;;;;;;;5.17;3.63;;;;;;;5.04;100.00;94987.78;5073023;28;20223;-61
2022/11/28 07:48:32;;;;;;;6.70;2.97;;;;;;;5.15;100.00;94988.88;5072998;28;20187;-60
2022/11/28 07:50:58;;;;;;;5.67;2.90;;;;;;;5.02;100.00;94969.41;5072595;28;20218;-61
2022/11/28 07:53:24;;;;;;;5.50;2.90;;;;;;;5.19;100.00;94970.97;5072472;28;20188;-61
2022/11/28 07:55:49;;;;;;;6.60;3.30;;;;;;;5.29;100.00;94973.75;5072649;28;20236;-60
2022/11/28 07:58:15;;;;;;;4.93;2.83;;;;;;;5.19;100.00;94967.63;5054631;28;20191;-61
2022/11/28 08:00:40;;;;;;;4.03;2.93;;;;;;;5.16;100.00;94965.28;5072850;28;20219;-63
2022/11/28 08:03:06;;;;;;;2.60;2.10;;;;;;;5.06;100.00;94973.38;5072538;28;20211;-63
2022/11/28 08:05:32;;;;;;;4.07;2.87;;;;;;;5.04;100.00;94960.06;5073010;28;20239;-61
2022/11/28 08:07:57;;;;;;;5.73;2.90;;;;;;;5.07;100.00;94959.88;5073053;28;20697;-62
2022/11/28 08:10:22;;;;;;;4.50;3.33;;;;;;;5.13;100.00;94957.00;5072719;28;20237;-62
2022/11/28 08:12:48;;;;;;;7.00;3.60;;;;;;;5.21;100.00;94955.75;5072347;28;20580;-59
2022/11/28 08:15:13;;;;;;;5.57;3.50;;;;;;;5.36;100.00;94957.34;5072389;28;20689;-59
2022/11/28 08:17:39;;;;;;;4.13;3.00;;;;;;;5.19;100.00;94967.63;5072419;28;20272;-61
2022/11/28 08:20:05;;;;;;;4.43;3.23;;;;;;;5.11;100.00;94955.44;5072635;28;20677;-61
2022/11/28 08:22:31;;;;;;;3.93;2.80;;;;;;;5.19;100.00;94970.97;5071879;28;20188;-61
2022/11/28 08:24:56;;;;;;;4.77;3.30;;;;;;;5.15;100.00;94971.22;5072276;28;20586;-59
2022/11/28 08:27:22;;;;;;;5.77;3.60;;;;;;;5.21;100.00;94950.72;5071171;28;20207;-62
2022/11/28 08:29:47;;;;;;;3.60;2.80;;;;;;;5.20;100.00;94946.56;5072453;28;20632;-62
2022/11/28 08:32:13;;;;;;;3.67;2.73;;;;;;;5.25;100.00;94967.25;5072115;28;20195;-60
2022/11/28 08:34:38;;;;;;;4.93;3.20;;;;;;;5.23;100.00;94952.25;5072123;28;20211;-59
2022/11/28 08:37:04;;;;;;;3.53;2.50;;;;;;;5.49;100.00;94963.28;5072064;28;20563;-61
2022/11/28 08:39:29;;;;;;;3.80;3.10;;;;;;;5.51;100.00;94953.91;5071889;28;20224;-59
2022/11/28 08:41:59;;;;;;;3.63;2.83;;;;;;;5.55;100.00;94947.78;5072154;28;20566;-59
2022/11/28 08:44:26;;;;;;;3.67;2.60;;;;;;;5.46;100.00;94961.75;5071753;28;20571;-59
2022/11/28 08:46:52;;;;;;;5.43;2.50;;;;;;;5.65;100.00;94981.63;5071770;28;20246;-60
2022/11/28 08:49:17;;;;;;;2.63;2.10;;;;;;;5.60;100.00;94971.00;5071629;28;20302;-59
2022/11/28 08:51:43;;;;;;;2.50;2.20;;;;;;;5.67;100.00;94962.16;5071970;28;20214;-60
2022/11/28 08:54:08;;;;;;;2.73;2.20;;;;;;;5.55;100.00;94952.84;5071609;28;20212;-59
2022/11/28 08:56:40;;;;;;;3.07;2.43;;;;;;;5.58;100.00;94942.53;5071614;28;20192;-59
2022/11/28 08:59:06;;;;;;;2.77;2.07;;;;;;;5.53;100.00;94924.38;5071606;28;20211;-59
2022/11/28 09:01:31;;;;;;;5.10;2.63;;;;;;;5.60;100.00;94933.19;5071607;28;20199;-60
2022/11/28 09:03:57;;;;;;;3.03;2.30;;;;;;;5.51;100.00;94936.28;5071439;28;20203;-59
2022/11/28 09:06:23;;;;;;;2.77;2.13;;;;;;;5.53;100.00;94931.94;5053751;28;20219;-59
2022/11/28 09:08:50;;;;;;;3.20;2.40;;;;;;;5.58;100.00;94947.59;5071429;28;20266;-58
2022/11/28 09:11:17;;;;;;;3.23;2.30;;;;;;;5.50;100.00;94944.72;5071355;28;20188;-59
2022/11/28 09:13:43;;;;;;;2.30;2.10;;;;;;;5.43;100.00;94936.75;5071239;28;20190;-59
2022/11/28 09:16:09;;;;;;;1.93;1.77;;;;;;;5.30;100.00;94917.38;5071566;28;20188;-59
2022/11/28 09:18:34;;;;;;;2.93;2.53;;;;;;;5.43;100.00;94948.53;5053447;28;20710;-62
2022/11/28 09:21:03;;;;;;;2.23;2.03;;;;;;;5.33;100.00;94918.03;5071321;28;20266;-62
2022/11/28 09:23:29;;;;;;;2.50;2.20;;;;;;;5.36;100.00;94899.38;5071114;28;20669;-62
2022/11/28 09:25:56;;;;;;;5.43;2.20;;;;;;;5.33;100.00;94907.94;5070963;28;20216;-62
2022/11/28 09:28:22;;;;;;;2.97;2.17;;;;;;;5.35;100.00;94900.28;5071146;28;20196;-60
2022/11/28 09:30:48;;;;;;;3.93;2.77;;;;;;;5.39;100.00;94871.47;5071464;28;20207;-62
2022/11/28 09:33:14;;;;;;;5.30;2.20;;;;;;;5.63;100.00;94883.38;5071128;28;20219;-61
2022/11/28 09:35:40;;;;;;;3.90;2.40;;;;;;;5.98;100.00;94901.38;5070348;28;20216;-60
2022/11/28 09:38:06;;;;;;;4.93;2.07;;;;;;;6.17;100.00;94922.03;5052984;28;20280;-63
2022/11/28 09:40:43;;;;;;;1.77;1.67;;;;;;;6.30;100.00;94942.28;5071015;28;20211;-64
2022/11/28 09:43:17;;;;;;;4.90;1.70;;;;;;;6.52;100.00;94960.19;5071101;28;20320;-61
2022/11/28 09:45:44;;;;;;;2.53;1.60;;;;;;;6.84;100.00;94932.84;5071004;28;20247;-61
2022/11/28 09:48:22;;;;;;;1.63;1.53;;;;;;;7.04;100.00;94960.94;5070983;28;20193;-62
2022/11/28 09:50:54;;;;;;;2.37;1.47;;;;;;;7.08;100.00;94996.94;5070734;28;20775;-62
2022/11/28 09:53:29;;;;;;;5.47;1.73;;;;;;;7.02;100.00;94998.16;5071337;28;20200;-61
2022/11/28 09:55:59;;;;;;;1.63;1.20;;;;;;;7.30;100.00;94972.66;5071388;28;20289;-61
2022/11/28 09:59:02;;;;;;;4.23;1.40;;;;;;;7.45;100.00;94981.72;5052798;28;20215;-61
2022/11/28 10:01:45;;;;;;;1.47;1.30;;;;;;;7.48;100.00;95006.03;5070916;28;20192;-64
2022/11/28 10:04:27;;;;;;;2.17;1.47;;;;;;;7.44;100.00;95028.19;5070793;28;20205;-61
2022/11/28 10:07:10;;;;;;;5.70;1.60;;;;;;;7.29;100.00;94980.34;5052848;28;20188;-63
2022/11/28 10:09:41;;;;;;;6.53;1.73;;;;;;;7.17;100.00;94963.47;5070754;28;20303;-61
2022/11/28 10:12:25;;;;;;;1.90;1.23;;;;;;;6.91;100.00;94994.72;5070675;28;20188;-62
2022/11/28 10:15:18;;;;;;;1.30;1.20;;;;;;;6.96;100.00;94968.22;5070835;28;20281;-62
2022/11/28 10:17:58;;;;;;;1.40;1.30;;;;;;;6.92;100.00;94956.69;5070752;28;20192;-63
2022/11/28 10:20:30;;;;;;;1.30;1.10;;;;;;;6.98;100.00;94973.16;5070786;28;20629;-62
2022/11/28 10:23:12;;;;;;;1.67;1.27;;;;;;;7.34;100.00;94996.03;5070951;28;20165;-61
2022/11/28 10:25:52;;;;;;;1.33;1.23;;;;;;;7.62;100.00;94995.78;5052606;28;20221;-63
2022/11/28 10:28:41;;;;;;;1.47;1.37;;;;;;;8.39;100.00;94962.53;5070836;28;20226;-61
2022/11/28 10:31:15;;;;;;;1.57;1.47;;;;;;;9.48;100.00;94964.59;5052835;28;20207;-61
2022/11/28 10:33:49;;;;;;;2.47;1.40;;;;;;;9.88;100.00;94991.91;5070867;28;20645;-63
2022/11/28 10:36:23;;;;;;;1.90;1.70;;;;;;;10.26;100.00;95014.38;5070594;28;20196;-62
2022/11/28 10:38:48;;;;;;;3.83;1.57;;;;;;;10.74;100.00;95041.06;5036042;28;20189;-60
2022/11/28 10:42:12;;;;;;;4.00;1.80;;;;;;;10.86;100.00;95077.44;5070474;28;20196;-60
2022/11/28 10:45:19;;;;;;;2.10;1.90;;;;;;;10.46;100.00;95082.28;5021647;28;20310;-63
2022/11/28 10:48:25;;;;;;;1.50;1.30;;;;;;;9.86;100.00;95074.19;4992526;28;20191;-61
2022/11/28 10:51:18;;;;;;;2.07;1.57;;;;;;;9.72;100.00;95060.00;4992612;28;20298;-60
2022/11/28 10:54:13;;;;;;;3.83;2.20;;;;;;;9.44;100.00;95021.56;5050845;28;20204;-60
2022/11/28 10:57:07;;;;;;;2.87;2.00;;;;;;;9.25;100.00;95037.38;5073675;28;20192;-63
2022/11/28 11:00:02;;;;;;;5.20;2.47;;;;;;;9.12;100.00;95014.63;5055831;28;20216;-64
2022/11/28 11:02:50;;;;;;;4.73;2.27;;;;;;;9.02;100.00;94992.56;5073462;28;20181;-62
2022/11/28 11:05:20;;;;;;;3.03;2.03;;;;;;;8.72;100.00;94992.28;5073742;28;20282;-64
2022/11/28 11:07:56;;;;;;;4.40;2.17;;;;;;;8.46;100.00;94978.94;5073848;28;20264;-62
2022/11/28 11:10:48;;;;;;;4.37;2.63;;;;;;;8.55;100.00;94974.91;5073761;28;20292;-62
2022/11/28 11:13:24;;;;;;;3.43;2.10;;;;;;;8.40;100.00;94956.56;5062862;28;20696;-62
2022/11/28 11:16:08;;;;;;;2.97;2.20;;;;;;;8.32;100.00;94964.69;5055668;28;20306;-64
2022/11/28 11:18:37;;;;;;;3.13;2.50;;;;;;;8.16;100.00;94941.34;5073397;28;20220;-59
2022/11/28 11:21:22;;;;;;;7.20;2.40;;;;;;;8.24;100.00;94915.50;5073377;28;20209;-62
2022/11/28 11:23:48;;;;;;;3.80;2.43;;;;;;;8.21;100.00;94920.78;5073298;28;20246;-59
2022/11/28 11:26:34;;;;;;;5.83;3.50;;;;;;;8.09;100.00;94894.59;5073423;28;20656;-60
2022/11/28 11:29:01;;;;;;;6.63;3.30;;;;;;;7.97;100.00;94867.63;5055033;28;20239;-63
2022/11/28 11:31:32;;;;;;;4.67;2.30;;;;;;;7.89;100.00;94864.84;5073347;28;20263;-59
2022/11/28 11:34:29;;;;;;;3.53;2.27;;;;;;;7.92;100.00;94879.78;5073293;28;20212;-62
2022/11/28 11:37:34;;;;;;;2.40;1.73;;;;;;;7.73;100.00;94909.84;5064831;22;20660;-59
2022/11/28 11:40:01;;;;;;;2.03;1.83;;;;;;;7.80;100.00;94890.00;5072854;28;20212;-62
2022/11/28 11:42:29;;;;;;;2.80;1.90;;;;;;;7.88;100.00;94891.03;5073044;28;20200;-60
2022/11/28 11:44:56;;;;;;;4.87;2.10;;;;;;;7.66;100.00;94858.03;5072661;28;20223;-60
2022/11/28 11:47:41;;;;;;;7.40;2.13;;;;;;;7.77;100.00;94845.47;5073107;28;20196;-59
2022/11/28 11:50:15;;;;;;;3.80;2.33;;;;;;;7.97;100.00;94837.25;5072869;28;20296;-64
2022/11/28 11:52:41;;;;;;;2.60;2.33;;;;;;;7.95;100.00;94864.41;5073189;28;20342;-59
2022/11/28 11:55:14;;;;;;;5.43;2.43;;;;;;;7.87;100.00;94875.97;5072722;28;20258;-61
2022/11/28 11:57:47;;;;;;;3.20;2.40;;;;;;;8.13;100.00;94868.16;5072286;28;20188;-63